Time;durP1;ratioP1;P1;durP2;ratioP2;P2;SDS_P1;SDS_P2;PMS_P1;PMS_P2;Temp;Humidity;BMP_temperature;BMP_pressure;BME280_temperature;BME280_humidity;BME280_pressure;Samples;Min_cycle;Max_cycle;Signal;HPM_P1;HPM_P2
2023/10/01 00:00:27;;;;;;;9.70;2.60;;;;;;;14.26;100.00;99369.63;5013566;28;20271;-58
2023/10/01 00:02:58;;;;;;;5.17;2.20;;;;;;;14.16;100.00;99353.41;5023526;28;20839;-57
2023/10/01 00:05:28;;;;;;;4.37;2.13;;;;;;;14.27;100.00;99359.94;5013605;28;20426;-56
2023/10/01 00:07:59;;;;;;;3.50;1.90;;;;;;;14.29;100.00;99352.84;5023054;28;20617;-58
2023/10/01 00:10:30;;;;;;;3.53;1.80;;;;;;;14.28;100.00;99351.13;5016893;28;20277;-57
2023/10/01 00:13:02;;;;;;;3.63;1.67;;;;;;;14.23;100.00;99352.22;5026754;28;20276;-57
2023/10/01 00:15:32;;;;;;;5.37;1.93;;;;;;;14.19;100.00;99349.78;5016917;28;20579;-58
2023/10/01 00:18:05;;;;;;;6.00;1.93;;;;;;;14.17;100.00;99349.84;5026896;28;20372;-58
2023/10/01 00:20:36;;;;;;;4.57;1.70;;;;;;;14.12;100.00;99354.47;4997162;28;20295;-58
2023/10/01 00:23:06;;;;;;;3.73;1.90;;;;;;;14.08;100.00;99345.03;5006587;28;20312;-57
2023/10/01 00:25:36;;;;;;;4.50;1.87;;;;;;;14.00;100.00;99336.63;5007798;28;20336;-57
2023/10/01 00:28:10;;;;;;;3.87;2.13;;;;;;;13.93;100.00;99337.84;4997889;28;20283;-57
2023/10/01 00:30:41;;;;;;;6.47;2.43;;;;;;;13.91;100.00;99330.03;5007565;28;20403;-58
2023/10/01 00:33:13;;;;;;;4.10;2.00;;;;;;;13.92;100.00;99338.75;4994758;28;20283;-57
2023/10/01 00:35:44;;;;;;;5.17;1.90;;;;;;;13.97;100.00;99339.41;5007679;28;20840;-57
2023/10/01 00:38:16;;;;;;;4.50;2.37;;;;;;;13.99;100.00;99337.56;4997871;28;20287;-58
2023/10/01 00:40:46;;;;;;;5.47;2.20;;;;;;;14.02;100.00;99340.03;5007365;28;20362;-56
2023/10/01 00:43:25;;;;;;;4.30;1.90;;;;;;;14.02;100.00;99330.38;4995153;28;20292;-55
2023/10/01 00:45:56;;;;;;;4.72;1.77;;;;;;;14.02;100.00;99325.13;5005546;28;20288;-57
2023/10/01 00:48:27;;;;;;;4.23;2.03;;;;;;;13.99;100.00;99313.94;4997507;28;20061;-57
2023/10/01 00:51:00;;;;;;;3.57;1.87;;;;;;;13.98;100.00;99312.25;5006833;28;20299;-58
2023/10/01 00:53:31;;;;;;;6.47;2.30;;;;;;;13.94;100.00;99310.66;4997617;28;20280;-57
2023/10/01 00:56:03;;;;;;;7.53;2.57;;;;;;;13.90;100.00;99304.69;5006972;28;20304;-56
2023/10/01 00:58:36;;;;;;;4.50;1.70;;;;;;;13.97;100.00;99310.50;5015858;28;20275;-59
2023/10/01 01:01:08;;;;;;;6.70;2.13;;;;;;;13.95;100.00;99301.84;5024260;28;20374;-58
2023/10/01 01:03:39;;;;;;;4.47;2.00;;;;;;;14.02;100.00;99309.38;5025941;28;20271;-58
2023/10/01 01:06:17;;;;;;;3.17;2.00;;;;;;;14.08;100.00;99297.75;5015819;28;20343;-58
2023/10/01 01:08:52;;;;;;;4.27;2.13;;;;;;;14.12;100.00;99294.03;5026608;28;20472;-58
2023/10/01 01:11:29;;;;;;;4.90;1.87;;;;;;;14.13;100.00;99290.50;4998589;28;20284;-58
2023/10/01 01:14:02;;;;;;;3.97;2.00;;;;;;;14.11;100.00;99281.84;5016686;28;20372;-58
2023/10/01 01:16:33;;;;;;;3.57;1.90;;;;;;;13.71;100.00;99225.91;5019917;28;20291;-58
2023/10/01 01:19:04;;;;;;;3.27;2.27;;;;;;;14.17;100.00;99283.31;5030598;28;20283;-59
2023/10/01 01:21:36;;;;;;;4.90;1.87;;;;;;;14.17;100.00;99281.53;5030211;28;20287;-56
2023/10/01 01:24:08;;;;;;;3.77;2.03;;;;;;;14.20;100.00;99264.78;5030219;28;20353;-57
2023/10/01 01:26:41;;;;;;;5.00;1.97;;;;;;;14.26;100.00;99263.66;5020877;28;20337;-60
2023/10/01 01:29:29;;;;;;;3.90;2.13;;;;;;;14.29;100.00;99259.09;5019604;28;20318;-59
2023/10/01 01:32:07;;;;;;;2.90;1.97;;;;;;;14.37;100.00;99256.94;5028431;28;20286;-57
2023/10/01 01:34:38;;;;;;;3.83;1.90;;;;;;;14.37;100.00;99248.22;5000713;28;20303;-59
2023/10/01 01:37:18;;;;;;;3.17;1.60;;;;;;;14.37;100.00;99250.84;5002342;28;20056;-57
2023/10/01 01:39:54;;;;;;;4.27;1.87;;;;;;;14.38;100.00;99248.16;5010454;28;20670;-57
2023/10/01 01:42:26;;;;;;;3.03;1.70;;;;;;;14.40;100.00;99242.81;5001078;28;20947;-59
2023/10/01 01:47:41;;;;;;;4.50;1.83;;;;;;;14.30;100.00;99238.94;5020173;28;20291;-58
2023/10/01 01:50:18;;;;;;;3.20;1.90;;;;;;;14.05;100.00;99192.81;5019624;28;20326;-58
2023/10/01 01:52:51;;;;;;;2.40;1.73;;;;;;;14.27;100.00;99218.91;5028967;28;20310;-58
2023/10/01 01:55:27;;;;;;;3.17;2.10;;;;;;;14.28;100.00;99215.38;5018612;28;20290;-58
2023/10/01 01:58:08;;;;;;;7.43;1.90;;;;;;;14.34;100.00;99208.97;5028119;28;20294;-59
2023/10/01 02:00:47;;;;;;;3.63;2.10;;;;;;;14.50;100.00;99196.75;5019437;28;21219;-58
2023/10/01 02:03:18;;;;;;;2.42;1.92;;;;;;;14.72;100.00;99198.34;5019703;28;20752;-59
2023/10/01 02:05:48;;;;;;;4.03;1.53;;;;;;;14.77;100.00;99191.09;5030930;28;20057;-58
2023/10/01 02:08:35;;;;;;;4.90;1.60;;;;;;;14.64;100.00;99154.06;5019426;28;20811;-59
2023/10/01 02:11:09;;;;;;;3.10;1.57;;;;;;;14.69;100.00;99148.56;5029332;28;20279;-58
2023/10/01 02:13:41;;;;;;;3.33;2.00;;;;;;;14.77;100.00;99170.06;5000638;28;20399;-57
2023/10/01 02:16:35;;;;;;;3.07;1.33;;;;;;;14.78;100.00;99177.03;5008646;28;20382;-58
2023/10/01 02:19:17;;;;;;;6.50;2.00;;;;;;;14.74;100.00;99180.72;5029718;28;20943;-58
2023/10/01 02:21:52;;;;;;;3.73;1.87;;;;;;;14.73;100.00;99168.53;5029419;28;21387;-56
2023/10/01 02:24:37;;;;;;;2.80;1.50;;;;;;;14.69;100.00;99173.06;5018581;28;20284;-56
2023/10/01 02:27:10;;;;;;;2.57;1.87;;;;;;;14.63;100.00;99168.97;5022360;28;20291;-58
2023/10/01 02:30:11;;;;;;;1.90;1.50;;;;;;;14.69;100.00;99161.72;5029605;28;20311;-58
2023/10/01 02:32:49;;;;;;;2.10;1.50;;;;;;;14.77;100.00;99164.78;5011191;28;20292;-58
2023/10/01 02:35:36;;;;;;;4.83;1.97;;;;;;;14.87;100.00;99156.34;5020333;28;20287;-58
2023/10/01 02:38:36;;;;;;;2.50;1.70;;;;;;;14.95;100.00;99161.22;5024035;28;20345;-58
2023/10/01 02:41:08;;;;;;;4.20;2.20;;;;;;;14.97;100.00;99155.88;5029276;28;20283;-58
2023/10/01 02:43:42;;;;;;;2.90;1.50;;;;;;;14.93;100.00;99149.94;5011634;28;20307;-57
2023/10/01 02:46:12;;;;;;;2.27;1.60;;;;;;;14.81;100.00;99140.03;5005187;28;20291;-58
2023/10/01 02:48:45;;;;;;;2.77;1.93;;;;;;;14.49;100.00;99081.19;5008758;28;20291;-58
2023/10/01 02:51:17;;;;;;;4.80;2.50;;;;;;;14.98;100.00;99153.16;4999737;28;20295;-56
2023/10/01 02:56:34;;;;;;;3.00;2.17;;;;;;;14.89;100.00;99137.84;5011515;28;20283;-58
2023/10/01 02:59:13;;;;;;;4.77;2.20;;;;;;;14.91;100.00;99143.06;5011323;28;20284;-57
2023/10/01 03:01:46;;;;;;;2.45;1.42;;;;;;;14.87;100.00;99135.28;4999196;28;20899;-58
2023/10/01 03:04:17;;;;;;;3.10;1.17;;;;;;;14.85;100.00;99125.78;5016315;28;20045;-57
2023/10/01 03:06:53;;;;;;;4.07;1.20;;;;;;;14.81;100.00;99121.63;5028604;28;20279;-57
2023/10/01 03:09:30;;;;;;;3.90;2.47;;;;;;;14.85;100.00;99136.31;5018463;28;20268;-58
2023/10/01 03:15:17;;;;;;;2.50;1.20;;;;;;;14.81;100.00;99124.28;5018670;28;20057;-56
2023/10/01 03:18:06;;;;;;;2.73;1.60;;;;;;;14.80;100.00;99122.56;5028654;28;20287;-57
2023/10/01 03:21:07;;;;;;;4.32;1.42;;;;;;;14.80;100.00;99117.28;4999475;28;20295;-59
2023/10/01 03:23:51;;;;;;;3.28;1.23;;;;;;;14.77;100.00;99122.72;5004767;28;20141;-57
2023/10/01 03:26:25;;;;;;;3.00;1.20;;;;;;;14.75;100.00;99116.69;5016999;28;20563;-57
2023/10/01 03:29:21;;;;;;;1.73;1.13;;;;;;;14.82;100.00;99115.44;5027938;28;20325;-58
2023/10/01 03:32:17;;;;;;;2.23;1.47;;;;;;;14.95;100.00;99110.38;5009293;28;20287;-59
2023/10/01 03:34:55;;;;;;;2.20;1.20;;;;;;;14.94;100.00;99114.78;5016995;28;20307;-59
2023/10/01 03:37:29;;;;;;;1.87;1.30;;;;;;;14.91;100.00;99114.97;5016870;28;20533;-58
2023/10/01 03:40:11;;;;;;;1.93;1.23;;;;;;;14.85;100.00;99115.28;5024279;28;20309;-58
2023/10/01 03:42:51;;;;;;;1.37;1.03;;;;;;;14.80;100.00;99106.78;5018340;28;20291;-59
2023/10/01 03:45:54;;;;;;;;;;;;;;;14.73;100.00;99110.69;5022486;28;20864;-58
2023/10/01 03:48:42;;;;;;;3.00;1.20;;;;;;;14.73;100.00;99094.91;5021181;28;20353;-60
2023/10/01 03:51:28;;;;;;;2.77;1.33;;;;;;;14.79;100.00;99102.47;5021831;28;20271;-56
2023/10/01 03:54:06;;;;;;;1.40;1.07;;;;;;;14.78;100.00;99109.50;5031629;28;20837;-58
2023/10/01 03:56:55;;;;;;;1.50;1.20;;;;;;;14.78;100.00;99104.25;5022011;28;20747;-59
2023/10/01 03:59:42;;;;;;;2.97;1.10;;;;;;;14.84;100.00;99097.81;5022438;28;20782;-59
2023/10/01 04:02:46;;;;;;;3.83;0.93;;;;;;;14.83;100.00;99085.59;5022101;28;20302;-59
2023/10/01 04:05:31;;;;;;;;;;;;;;;14.88;100.00;99094.09;5020405;28;20345;-58
2023/10/01 04:08:13;;;;;;;1.40;1.10;;;;;;;14.85;100.00;99078.44;5030629;28;21103;-57
2023/10/01 04:10:58;;;;;;;3.73;1.20;;;;;;;14.87;100.00;99084.50;5016417;28;20279;-59
2023/10/01 04:13:33;;;;;;;1.17;0.90;;;;;;;14.85;100.00;99091.59;5021402;28;20637;-59
2023/10/01 04:16:14;;;;;;;2.50;1.90;;;;;;;14.85;100.00;99110.88;5031617;28;20325;-59
2023/10/01 04:18:52;;;;;;;2.17;1.30;;;;;;;14.83;100.00;99091.69;5028400;28;20298;-56
2023/10/01 04:21:26;;;;;;;1.97;1.23;;;;;;;14.82;100.00;99089.13;5021414;28;20637;-59
2023/10/01 04:24:02;;;;;;;1.87;1.00;;;;;;;14.78;100.00;99080.56;5031181;28;21025;-58
2023/10/01 04:26:35;;;;;;;1.73;1.13;;;;;;;14.79;100.00;99084.03;5020989;28;20314;-58
2023/10/01 04:29:16;;;;;;;2.90;1.03;;;;;;;14.87;100.00;99087.13;5026377;28;20380;-58
2023/10/01 04:32:01;;;;;;;1.53;1.10;;;;;;;15.00;100.00;99072.41;5032070;28;20637;-58
2023/10/01 04:34:44;;;;;;;3.17;1.10;;;;;;;15.10;100.00;99068.34;5019547;28;20302;-58
2023/10/01 04:37:36;;;;;;;3.13;1.07;;;;;;;15.14;100.00;99068.16;5019234;28;20291;-59
2023/10/01 04:43:01;;;;;;;3.10;1.00;;;;;;;15.21;100.00;99059.00;5028549;28;20315;-56
2023/10/01 04:45:36;;;;;;;1.50;0.90;;;;;;;15.17;100.00;99054.84;5017790;28;20287;-57
2023/10/01 04:48:22;;;;;;;4.17;1.23;;;;;;;15.13;100.00;99062.06;5017506;28;20995;-58
2023/10/01 04:50:59;;;;;;;2.10;0.90;;;;;;;15.08;100.00;99057.03;5031132;28;20382;-58
2023/10/01 04:53:39;;;;;;;5.23;1.10;;;;;;;14.99;100.00;99048.81;5020968;28;20293;-58
2023/10/01 04:56:27;;;;;;;7.07;1.13;;;;;;;14.96;100.00;99038.44;5020400;28;20291;-59
2023/10/01 04:59:10;;;;;;;1.57;1.03;;;;;;;15.09;100.00;99060.53;5030574;28;20748;-59
2023/10/01 05:01:56;;;;;;;3.63;1.20;;;;;;;15.21;100.00;99045.84;5021010;28;20283;-58
2023/10/01 05:04:30;;;;;;;2.00;1.03;;;;;;;15.39;100.00;99038.72;5020859;28;20301;-59
2023/10/01 05:07:10;;;;;;;1.17;1.03;;;;;;;15.71;100.00;99026.41;5031772;28;20365;-59
2023/10/01 05:09:56;;;;;;;2.30;1.30;;;;;;;16.12;100.00;99020.50;5018948;28;20292;-58
2023/10/01 05:12:43;;;;;;;2.83;1.50;;;;;;;16.52;100.00;99024.25;5021011;28;20292;-56
2023/10/01 05:15:35;;;;;;;6.20;1.80;;;;;;;17.05;100.00;99019.28;5021356;28;20301;-58
2023/10/01 05:18:22;;;;;;;2.20;1.00;;;;;;;17.39;100.00;99019.78;5020096;28;20311;-58
2023/10/01 05:21:12;;;;;;;2.07;1.00;;;;;;;17.32;100.00;99015.84;5030367;28;20287;-59
2023/10/01 05:23:47;;;;;;;1.50;0.93;;;;;;;17.06;100.00;99010.41;5014913;28;20387;-58
2023/10/01 05:26:20;;;;;;;2.77;1.30;;;;;;;17.10;100.00;99009.28;5019651;28;20278;-58
2023/10/01 05:28:54;;;;;;;3.07;1.43;;;;;;;17.15;100.00;99007.22;5030155;28;20677;-58
2023/10/01 05:31:26;;;;;;;2.47;1.30;;;;;;;17.28;100.00;99006.44;5020384;28;20290;-59
2023/10/01 05:34:00;;;;;;;3.20;1.37;;;;;;;17.25;100.00;98994.28;5030153;28;20388;-58
2023/10/01 05:36:32;;;;;;;3.43;1.20;;;;;;;17.50;100.00;99017.31;5020063;28;20294;-60
2023/10/01 05:39:11;;;;;;;6.03;1.93;;;;;;;17.41;100.00;98981.75;5030540;28;20763;-59
2023/10/01 05:41:44;;;;;;;3.75;1.58;;;;;;;17.75;100.00;99026.28;5019792;28;20877;-58
2023/10/01 05:44:18;;;;;;;7.20;1.87;;;;;;;17.83;100.00;99026.66;5018453;28;20103;-59
2023/10/01 05:46:51;;;;;;;6.53;1.90;;;;;;;17.86;100.00;99029.91;5027394;28;20283;-58
2023/10/01 05:49:23;;;;;;;3.10;1.63;;;;;;;17.80;100.00;99032.97;5019295;28;20379;-59
2023/10/01 05:51:56;;;;;;;5.20;2.00;;;;;;;17.75;100.00;99031.56;5029694;28;20319;-60
2023/10/01 05:54:30;;;;;;;6.97;3.87;;;;;;;17.63;100.00;99028.75;5019476;28;20440;-60
2023/10/01 05:57:07;;;;;;;7.00;2.23;;;;;;;17.61;100.00;99030.66;5030205;28;20319;-58
2023/10/01 05:59:38;;;;;;;10.50;2.60;;;;;;;17.57;100.00;99021.25;5017974;28;20286;-56
2023/10/01 06:02:28;;;;;;;6.53;2.17;;;;;;;17.55;100.00;99020.50;5018272;28;20298;-56
2023/10/01 06:05:22;;;;;;;5.33;2.17;;;;;;;17.47;100.00;99014.84;5030173;28;20780;-61
2023/10/01 06:07:52;;;;;;;11.27;5.07;;;;;;;17.40;100.00;99005.66;5023756;28;20290;-58
2023/10/01 06:10:26;;;;;;;6.83;3.60;;;;;;;17.45;100.00;98998.28;5019294;28;20286;-60
2023/10/01 06:13:28;;;;;;;7.97;3.03;;;;;;;17.49;100.00;98993.63;5030051;28;20283;-58
2023/10/01 06:16:11;;;;;;;6.83;2.53;;;;;;;17.44;100.00;98991.28;5028801;28;20291;-57
2023/10/01 06:18:49;;;;;;;6.33;2.40;;;;;;;17.42;100.00;98995.81;5018976;28;21508;-60
2023/10/01 06:21:27;;;;;;;8.03;2.60;;;;;;;16.98;100.00;98925.63;5019631;28;20290;-60
2023/10/01 06:24:03;;;;;;;7.10;2.97;;;;;;;17.30;100.00;98991.31;5029711;28;20283;-57
2023/10/01 06:26:42;;;;;;;6.93;3.20;;;;;;;17.31;100.00;98985.09;5000151;28;20342;-59
2023/10/01 06:29:16;;;;;;;9.85;3.10;;;;;;;17.24;100.00;98993.41;5000168;28;20635;-59
2023/10/01 06:31:52;;;;;;;6.00;3.00;;;;;;;17.20;100.00;98999.84;5010560;28;20884;-59
2023/10/01 06:34:26;;;;;;;6.53;2.47;;;;;;;17.18;100.00;99012.28;5008981;28;20288;-60
2023/10/01 06:36:59;;;;;;;13.13;3.03;;;;;;;17.19;100.00;99008.69;5027238;28;20287;-60
2023/10/01 06:39:33;;;;;;;7.67;2.77;;;;;;;17.20;100.00;99005.13;5019594;28;20285;-61
2023/10/01 06:45:02;;;;;;;4.57;2.83;;;;;;;17.17;100.00;99000.06;5069977;27;20209;-57
2023/10/01 06:47:34;;;;;;;11.00;3.17;;;;;;;17.20;100.00;98997.22;5054425;28;20338;-60
2023/10/01 06:50:14;;;;;;;9.73;4.60;;;;;;;17.13;100.00;98998.53;5065853;28;20297;-60
2023/10/01 06:52:45;;;;;;;;;;;;;;;17.01;100.00;99002.78;5054976;28;20305;-57
2023/10/01 06:55:28;;;;;;;9.60;4.50;;;;;;;16.90;100.00;99015.81;5054305;28;20512;-58
2023/10/01 06:58:06;;;;;;;9.20;3.53;;;;;;;16.76;100.00;99003.44;5050359;28;20287;-58
2023/10/01 07:00:41;;;;;;;4.97;3.07;;;;;;;16.76;100.00;99015.78;5044874;28;20340;-60
2023/10/01 07:03:21;;;;;;;7.90;2.83;;;;;;;16.71;100.00;99016.06;5044256;28;20313;-59
2023/10/01 07:05:56;;;;;;;6.33;3.00;;;;;;;16.68;100.00;99005.72;5055092;28;20378;-59
2023/10/01 07:08:37;;;;;;;8.23;4.03;;;;;;;16.60;100.00;99007.97;5044978;28;20282;-60
2023/10/01 07:11:18;;;;;;;8.07;3.60;;;;;;;16.55;100.00;99012.69;5048752;28;20278;-56
2023/10/01 07:13:52;;;;;;;11.87;3.97;;;;;;;16.51;100.00;99008.53;5044234;28;20285;-59
2023/10/01 07:16:39;;;;;;;9.57;4.13;;;;;;;16.48;100.00;99006.09;5036697;28;20287;-59
2023/10/01 07:19:11;;;;;;;9.83;3.67;;;;;;;16.48;100.00;99014.00;5033406;28;20283;-60
2023/10/01 07:21:45;;;;;;;14.57;4.67;;;;;;;16.46;100.00;99018.50;5046140;28;20271;-58
2023/10/01 07:24:16;;;;;;;14.57;4.40;;;;;;;16.46;100.00;99007.97;5031932;28;20283;-60
2023/10/01 07:26:50;;;;;;;14.50;8.40;;;;;;;16.45;100.00;99011.53;5036941;28;20603;-60
2023/10/01 07:29:23;;;;;;;14.23;6.53;;;;;;;16.52;100.00;99012.84;5027532;28;20494;-60
2023/10/01 07:31:56;;;;;;;25.17;16.57;;;;;;;16.55;100.00;99015.31;5035704;28;20293;-59
2023/10/01 07:34:27;;;;;;;25.73;19.93;;;;;;;16.56;100.00;99019.66;5045154;28;20705;-61
2023/10/01 07:36:59;;;;;;;23.60;19.53;;;;;;;16.56;100.00;99019.66;5055143;28;20282;-58
2023/10/01 07:39:36;;;;;;;16.37;11.03;;;;;;;16.48;100.00;99006.09;5053213;28;20321;-59
2023/10/01 07:42:10;;;;;;;13.03;7.97;;;;;;;16.52;100.00;99018.97;5063938;28;20286;-57
2023/10/01 07:44:44;;;;;;;12.93;8.23;;;;;;;16.52;100.00;99012.84;5065266;28;20823;-59
2023/10/01 07:47:32;;;;;;;25.93;17.67;;;;;;;16.29;100.00;98970.28;5055305;28;20959;-58
2023/10/01 07:50:12;;;;;;;19.67;14.33;;;;;;;16.50;100.00;98998.91;5064451;28;20887;-58
2023/10/01 07:52:44;;;;;;;22.17;12.50;;;;;;;16.38;100.00;99004.00;5034894;28;20287;-58
2023/10/01 07:55:34;;;;;;;19.00;11.63;;;;;;;16.34;100.00;99015.66;5025860;28;20676;-58
2023/10/01 07:58:23;;;;;;;11.17;6.50;;;;;;;16.25;100.00;99013.59;5024731;28;20295;-57
2023/10/01 08:01:36;;;;;;;7.77;3.93;;;;;;;16.23;100.00;99018.09;5022311;28;20421;-57
2023/10/01 08:03:56;;;;;;;10.47;4.63;;;;;;;16.16;100.00;99027.31;5021236;28;21125;-59
2023/10/01 08:06:31;;;;;;;20.30;11.70;;;;;;;16.09;100.00;99020.69;5011596;28;20291;-58
2023/10/01 08:09:08;;;;;;;22.03;12.93;;;;;;;16.07;100.00;99027.84;5025958;28;20375;-59
2023/10/01 08:11:58;;;;;;;15.47;9.83;;;;;;;16.00;100.00;99031.78;5028565;28;20329;-58
2023/10/01 08:14:43;;;;;;;;;;;;;;;;;;;;;
2023/10/01 08:17:20;;;;;;;11.17;6.43;;;;;;;15.92;100.00;99025.16;4968637;28;20873;-58
2023/10/01 08:19:56;;;;;;;12.73;5.40;;;;;;;15.47;100.00;98968.91;5021672;28;20310;-58
2023/10/01 08:22:43;;;;;;;13.17;4.70;;;;;;;15.80;100.00;99035.56;5011913;28;20323;-58
2023/10/01 08:25:13;;;;;;;15.03;5.20;;;;;;;15.51;100.00;98999.41;5019032;28;20290;-57
2023/10/01 08:30:41;;;;;;;18.00;6.40;;;;;;;15.62;100.00;99045.31;5012036;28;20286;-56
2023/10/01 08:33:19;;;;;;;15.33;5.80;;;;;;;15.58;100.00;99051.72;5015477;28;20317;-57
2023/10/01 08:36:01;;;;;;;9.60;3.97;;;;;;;15.56;100.00;99045.69;5028331;28;20373;-57
2023/10/01 08:38:36;;;;;;;12.37;5.13;;;;;;;15.56;100.00;99053.59;5011527;28;20286;-57
2023/10/01 08:41:07;;;;;;;12.67;4.20;;;;;;;15.50;100.00;99039.84;5015343;28;20337;-56
2023/10/01 08:43:43;;;;;;;14.03;4.87;;;;;;;15.50;100.00;99042.47;5029453;28;20366;-58
2023/10/01 08:46:19;;;;;;;15.53;4.93;;;;;;;15.44;100.00;99034.91;5019103;28;20287;-60
2023/10/01 08:48:50;;;;;;;11.10;4.43;;;;;;;15.54;100.00;99051.88;5029480;28;20323;-59
2023/10/01 08:51:24;;;;;;;15.27;5.27;;;;;;;15.51;100.00;99057.31;5014773;28;20306;-58
2023/10/01 08:53:56;;;;;;;16.10;5.50;;;;;;;15.46;100.00;99054.09;5021952;28;20378;-59
2023/10/01 08:56:33;;;;;;;14.53;5.23;;;;;;;15.38;100.00;99045.78;5011357;28;20849;-60
2023/10/01 08:59:23;;;;;;;10.47;4.60;;;;;;;15.43;100.00;99056.91;5030549;28;20286;-59
2023/10/01 09:01:55;;;;;;;;;;;;;;;15.38;100.00;99061.56;5048892;28;20310;-60
2023/10/01 09:04:44;;;;;;;14.37;4.43;;;;;;;15.28;100.00;99060.38;5038150;28;20052;-59
2023/10/01 09:07:20;;;;;;;7.35;3.55;;;;;;;15.20;100.00;99044.13;5028034;28;20295;-59
2023/10/01 09:10:17;;;;;;;10.10;4.37;;;;;;;15.24;100.00;99059.69;5026701;28;20065;-57
2023/10/01 09:12:49;;;;;;;8.00;3.67;;;;;;;15.18;100.00;99054.78;5020572;28;20290;-60
2023/10/01 09:15:29;;;;;;;11.33;4.30;;;;;;;15.09;100.00;99066.63;5014368;28;20319;-60
2023/10/01 09:18:10;;;;;;;11.53;4.73;;;;;;;15.07;100.00;99068.47;5029195;28;20729;-58
2023/10/01 09:21:03;;;;;;;9.23;4.47;;;;;;;15.03;100.00;99061.72;5037024;28;20294;-59
2023/10/01 09:24:11;;;;;;;9.10;4.20;;;;;;;14.94;100.00;99051.66;5029767;28;20283;-58
2023/10/01 09:26:44;;;;;;;10.00;3.40;;;;;;;14.93;100.00;99059.66;5038935;28;20287;-58
2023/10/01 09:29:22;;;;;;;8.17;3.80;;;;;;;14.89;100.00;99058.97;5038380;28;20834;-59
2023/10/01 09:31:56;;;;;;;8.25;3.78;;;;;;;14.44;100.00;98999.97;5049190;28;20817;-59
2023/10/01 09:34:33;;;;;;;8.80;4.90;;;;;;;14.83;100.00;99064.56;5010452;28;20174;-58
2023/10/01 09:37:08;;;;;;;8.93;5.30;;;;;;;14.23;100.00;98970.41;5028042;28;20279;-60
2023/10/01 09:39:43;;;;;;;7.60;3.67;;;;;;;14.70;100.00;99058.22;5013298;28;20283;-59
2023/10/01 09:42:28;;;;;;;5.07;2.63;;;;;;;14.69;100.00;99061.81;5013625;28;20275;-59
2023/10/01 09:45:09;;;;;;;6.60;2.87;;;;;;;14.63;100.00;99069.06;5026947;28;20295;-57
2023/10/01 09:47:42;;;;;;;7.20;2.20;;;;;;;14.60;100.00;99069.25;5010783;28;20287;-58
2023/10/01 09:50:18;;;;;;;5.97;2.17;;;;;;;14.53;100.00;99062.59;5010858;28;20295;-58
2023/10/01 09:52:58;;;;;;;5.53;2.20;;;;;;;14.48;100.00;99066.34;5020512;28;20425;-58
2023/10/01 09:55:47;;;;;;;7.20;2.37;;;;;;;14.45;100.00;99067.34;5019217;28;20286;-58
2023/10/01 09:58:24;;;;;;;6.13;2.28;;;;;;;14.41;100.00;99081.59;5019853;28;20767;-58
2023/10/01 10:01:00;;;;;;;3.10;1.80;;;;;;;14.37;100.00;99062.50;5029917;28;20048;-58
2023/10/01 10:03:36;;;;;;;5.80;2.00;;;;;;;14.34;100.00;99067.06;5018837;28;20282;-58
2023/10/01 10:06:09;;;;;;;8.70;1.87;;;;;;;14.33;100.00;99065.38;5027736;28;20633;-58
2023/10/01 10:08:42;;;;;;;3.90;1.87;;;;;;;14.32;100.00;99061.03;5028034;28;20653;-59
2023/10/01 10:11:24;;;;;;;3.20;1.80;;;;;;;14.31;100.00;99067.22;5018737;28;20361;-59
2023/10/01 10:13:57;;;;;;;6.10;2.30;;;;;;;14.32;100.00;99064.50;5028795;28;20287;-59
2023/10/01 10:16:31;;;;;;;5.33;2.30;;;;;;;14.33;100.00;99070.63;5037896;28;20305;-58
2023/10/01 10:19:20;;;;;;;7.53;2.10;;;;;;;14.13;100.00;99038.31;5039776;28;20298;-58
2023/10/01 10:22:12;;;;;;;3.42;1.80;;;;;;;14.37;100.00;99066.91;5048951;28;20277;-58
2023/10/01 10:24:47;;;;;;;4.10;1.77;;;;;;;14.35;100.00;99068.75;5010651;28;20496;-59
2023/10/01 10:27:51;;;;;;;4.37;1.50;;;;;;;14.38;100.00;99058.09;5010411;28;20457;-59
2023/10/01 10:30:27;;;;;;;4.53;1.80;;;;;;;14.38;100.00;99058.09;5010831;28;21027;-57
2023/10/01 10:33:39;;;;;;;3.10;1.60;;;;;;;14.38;100.00;99063.38;5020436;28;20389;-59
2023/10/01 10:36:53;;;;;;;8.90;2.40;;;;;;;14.36;100.00;99071.31;5014092;28;20328;-58
2023/10/01 10:40:12;;;;;;;4.30;1.90;;;;;;;14.35;100.00;99068.75;5010121;28;20306;-59
2023/10/01 10:42:46;;;;;;;;;;;;;;;14.33;100.00;99070.63;5015212;28;20612;-56
2023/10/01 10:45:22;;;;;;;4.73;2.30;;;;;;;14.31;100.00;99068.06;5019300;28;19947;-60
2023/10/01 10:48:01;;;;;;;3.78;1.98;;;;;;;14.29;100.00;99063.81;5028857;28;20648;-60
2023/10/01 10:50:48;;;;;;;5.47;1.93;;;;;;;14.14;100.00;99036.53;5017561;28;20048;-59
2023/10/01 10:53:24;;;;;;;5.93;2.03;;;;;;;14.27;100.00;99058.63;5009617;28;20337;-57
2023/10/01 10:56:00;;;;;;;8.47;3.00;;;;;;;14.23;100.00;99060.56;5019559;28;20295;-57
2023/10/01 10:58:37;;;;;;;7.30;4.50;;;;;;;14.13;100.00;99059.34;5018756;28;20283;-57
2023/10/01 11:01:18;;;;;;;14.07;6.40;;;;;;;14.13;100.00;99067.22;5011411;28;20287;-58
2023/10/01 11:03:51;;;;;;;7.37;3.30;;;;;;;14.09;100.00;99063.03;5025309;28;20666;-59
2023/10/01 11:06:24;;;;;;;10.53;3.47;;;;;;;14.05;100.00;99061.47;5019330;28;20295;-57
2023/10/01 11:08:56;;;;;;;5.53;2.73;;;;;;;14.01;100.00;99059.94;5029194;28;20283;-57
2023/10/01 11:11:30;;;;;;;5.97;3.20;;;;;;;14.02;100.00;99064.28;5018422;28;20283;-59
2023/10/01 11:14:11;;;;;;;6.00;2.30;;;;;;;14.06;100.00;99076.34;5029932;28;20282;-58
2023/10/01 11:16:45;;;;;;;6.23;1.93;;;;;;;14.06;100.00;99081.59;5018622;28;20348;-58
2023/10/01 11:19:18;;;;;;;4.93;1.87;;;;;;;13.80;100.00;99046.09;5010389;28;20288;-57
2023/10/01 11:21:58;;;;;;;4.70;1.50;;;;;;;14.05;100.00;99098.25;5025673;28;20290;-58
2023/10/01 11:24:31;;;;;;;8.50;2.60;;;;;;;13.99;100.00;99095.94;5019608;28;20757;-58
2023/10/01 11:27:18;;;;;;;3.97;1.97;;;;;;;13.97;100.00;99090.75;5025382;28;20106;-58
2023/10/01 11:30:00;;;;;;;3.73;1.60;;;;;;;13.93;100.00;99096.25;5020096;28;20295;-57
2023/10/01 11:33:01;;;;;;;2.67;1.37;;;;;;;13.87;100.00;99097.38;5013587;28;20298;-58
2023/10/01 11:35:36;;;;;;;5.73;1.30;;;;;;;13.82;100.00;99108.09;5014290;28;20621;-59
2023/10/01 11:38:14;;;;;;;4.40;1.27;;;;;;;13.81;100.00;99100.31;5047188;28;20294;-59
2023/10/01 11:43:40;;;;;;;5.93;1.30;;;;;;;13.86;100.00;99107.97;5041518;28;20957;-59
2023/10/01 11:46:23;;;;;;;5.50;1.30;;;;;;;13.89;100.00;99118.31;5041304;28;20969;-59
2023/10/01 11:48:57;;;;;;;2.57;1.07;;;;;;;13.88;100.00;99111.34;5052048;28;20059;-58
2023/10/01 11:51:45;;;;;;;2.40;1.03;;;;;;;13.87;100.00;99109.66;5040649;28;20283;-58
2023/10/01 11:54:18;;;;;;;5.97;1.57;;;;;;;13.79;100.00;99097.75;5041714;28;20381;-58
2023/10/01 11:57:04;;;;;;;3.20;1.13;;;;;;;13.78;100.00;99095.22;5051582;28;20286;-58
2023/10/01 11:59:42;;;;;;;1.97;0.93;;;;;;;13.87;100.00;99099.16;5024512;28;20290;-58
2023/10/01 12:02:20;;;;;;;2.33;0.90;;;;;;;13.48;100.00;99024.03;5020346;28;20286;-58
2023/10/01 12:04:57;;;;;;;3.75;0.80;;;;;;;13.89;100.00;99087.66;5030369;28;20340;-58
2023/10/01 12:07:32;;;;;;;5.10;1.00;;;;;;;13.92;100.00;99098.00;5020163;28;20058;-59
2023/10/01 12:10:05;;;;;;;0.97;0.73;;;;;;;13.90;100.00;99094.59;5029513;28;20286;-58
2023/10/01 12:12:38;;;;;;;5.10;1.03;;;;;;;13.85;100.00;99090.50;5014199;28;20350;-59
2023/10/01 12:18:07;;;;;;;2.93;1.10;;;;;;;13.93;100.00;99098.88;5022351;28;20302;-59
2023/10/01 12:20:47;;;;;;;4.40;1.00;;;;;;;13.93;100.00;99104.13;5023855;28;20727;-59
2023/10/01 12:23:22;;;;;;;1.33;0.70;;;;;;;13.90;100.00;99104.25;5019866;28;20297;-57
2023/10/01 12:26:31;;;;;;;2.63;0.80;;;;;;;13.88;100.00;99117.47;5031362;28;20299;-57
2023/10/01 12:29:11;;;;;;;1.60;0.90;;;;;;;13.82;100.00;99112.50;5020395;28;20282;-60
2023/10/01 12:31:37;;;;;;;2.27;0.80;;;;;;;13.75;100.00;99106.72;5020187;28;20784;-57
2023/10/01 12:34:09;;;;;;;5.30;1.30;;;;;;;13.70;100.00;99119.19;5024251;28;20290;-57
2023/10/01 12:36:44;;;;;;;3.47;0.80;;;;;;;13.66;100.00;99111.56;5031354;28;20314;-58
2023/10/01 12:39:17;;;;;;;2.50;0.80;;;;;;;13.62;100.00;99110.84;5017621;28;20294;-58
2023/10/01 12:41:56;;;;;;;1.83;0.80;;;;;;;13.43;100.00;99083.75;5023108;28;20380;-57